createdAt,value
2018-07-22T00:00:46.728Z,20.20
2018-07-22T00:03:16.309Z,20.00
2018-07-22T00:05:45.161Z,20.10
2018-07-22T00:08:14.010Z,20.10
2018-07-22T00:10:43.612Z,20.10
2018-07-22T00:13:12.456Z,20.10
2018-07-22T00:15:41.314Z,20.10
2018-07-22T00:18:10.172Z,20.10
2018-07-22T00:20:39.036Z,20.20
2018-07-22T00:23:07.891Z,20.10
2018-07-22T00:25:36.732Z,20.00
2018-07-22T00:28:05.578Z,20.10
2018-07-22T00:30:34.430Z,19.90
2018-07-22T00:33:04.013Z,19.80
2018-07-22T00:38:02.729Z,19.90
2018-07-22T00:40:32.304Z,19.80
2018-07-22T00:43:01.162Z,19.70
2018-07-22T00:45:30.008Z,19.60
2018-07-22T00:47:59.589Z,19.60
2018-07-22T00:50:28.441Z,19.50
2018-07-22T00:52:57.285Z,19.60
2018-07-22T00:55:26.135Z,19.60
2018-07-22T00:57:54.974Z,19.50
2018-07-22T01:00:23.818Z,19.40
2018-07-22T01:02:52.657Z,19.50
2018-07-22T01:05:21.507Z,19.50
2018-07-22T01:07:50.351Z,19.50
2018-07-22T01:10:19.195Z,19.50
2018-07-22T01:12:48.040Z,19.50
2018-07-22T01:15:16.887Z,19.50
2018-07-22T01:17:45.729Z,19.40
2018-07-22T01:20:14.565Z,19.50
2018-07-22T01:22:43.414Z,19.50
2018-07-22T01:25:12.254Z,19.50
2018-07-22T01:27:41.850Z,19.50
2018-07-22T01:30:10.692Z,19.50
2018-07-22T01:32:39.539Z,19.60
2018-07-22T01:35:08.393Z,19.60
2018-07-22T01:37:37.230Z,19.70
2018-07-22T01:40:06.077Z,19.70
2018-07-22T01:42:34.920Z,19.60
2018-07-22T01:45:03.766Z,19.60
2018-07-22T01:47:32.603Z,19.60
2018-07-22T01:50:01.454Z,19.60
2018-07-22T01:52:30.301Z,19.60
2018-07-22T01:54:59.141Z,19.60
2018-07-22T01:57:28.722Z,19.60
2018-07-22T01:59:57.575Z,19.60
2018-07-22T02:02:26.414Z,19.60
2018-07-22T02:04:55.268Z,19.70
2018-07-22T02:07:24.107Z,19.60
2018-07-22T02:09:52.947Z,19.50
2018-07-22T02:12:21.790Z,19.40
2018-07-22T02:14:51.372Z,19.40
2018-07-22T02:17:20.215Z,19.30
2018-07-22T02:19:49.063Z,19.30
2018-07-22T02:22:17.908Z,19.30
2018-07-22T02:24:46.771Z,19.30
2018-07-22T02:27:15.604Z,19.30
2018-07-22T02:29:44.444Z,19.40
2018-07-22T02:32:13.293Z,19.40
2018-07-22T02:34:42.141Z,19.40
2018-07-22T02:37:10.986Z,19.20
2018-07-22T02:42:09.270Z,19.30
2018-07-22T02:44:38.112Z,19.30
2018-07-22T02:47:06.954Z,19.30
2018-07-22T02:49:35.799Z,19.20
2018-07-22T02:52:04.643Z,19.20
2018-07-22T02:54:34.245Z,19.30
2018-07-22T02:57:03.087Z,19.30
2018-07-22T02:59:31.925Z,19.30
2018-07-22T03:02:00.770Z,19.30
2018-07-22T03:04:29.612Z,19.30
2018-07-22T03:06:59.196Z,19.20
2018-07-22T03:09:28.038Z,19.20
2018-07-22T03:11:56.873Z,19.10
2018-07-22T03:14:25.715Z,19.10
2018-07-22T03:16:54.557Z,19.10
2018-07-22T03:19:23.407Z,19.10
2018-07-22T03:21:52.251Z,19.10
2018-07-22T03:24:21.104Z,19.20
2018-07-22T03:29:11.136Z,19.10
2018-07-22T03:31:40.733Z,19.00
2018-07-22T03:34:09.568Z,19.10
2018-07-22T03:36:38.410Z,19.10
2018-07-22T03:39:07.260Z,19.20
2018-07-22T03:41:36.096Z,19.20
2018-07-22T03:44:05.688Z,19.10
2018-07-22T03:46:34.532Z,18.90
2018-07-22T03:49:03.373Z,18.80
2018-07-22T03:51:32.210Z,18.80
2018-07-22T03:54:01.055Z,18.90
2018-07-22T03:56:29.904Z,18.90
2018-07-22T03:58:58.742Z,19.00
2018-07-22T04:01:28.337Z,18.80
2018-07-22T04:03:57.215Z,19.00
2018-07-22T04:06:26.060Z,19.10
2018-07-22T04:08:54.892Z,18.90
2018-07-22T04:11:23.742Z,18.80
2018-07-22T04:13:52.620Z,18.80
2018-07-22T04:16:22.208Z,18.80
2018-07-22T04:18:51.053Z,18.80
2018-07-22T04:21:19.907Z,18.90
2018-07-22T04:23:48.766Z,18.80
2018-07-22T04:26:17.618Z,18.90
2018-07-22T04:28:46.459Z,18.90
2018-07-22T04:31:15.300Z,18.90
2018-07-22T04:33:44.173Z,18.80
2018-07-22T04:36:13.016Z,18.80
2018-07-22T04:38:41.875Z,18.80
2018-07-22T04:41:10.723Z,18.90
2018-07-22T04:43:39.559Z,18.90
2018-07-22T04:46:08.394Z,19.00
2018-07-22T04:48:37.232Z,18.90
2018-07-22T04:51:06.070Z,19.00
2018-07-22T04:53:34.945Z,19.10
2018-07-22T04:56:04.491Z,19.10
2018-07-22T04:58:33.329Z,19.20
2018-07-22T05:01:02.182Z,19.20
2018-07-22T05:03:31.032Z,19.20
2018-07-22T05:05:59.900Z,19.20
2018-07-22T05:08:28.754Z,19.20
2018-07-22T05:10:57.599Z,19.30
2018-07-22T05:13:26.439Z,19.30
2018-07-22T05:15:55.290Z,19.30
2018-07-22T05:18:24.136Z,19.40
2018-07-22T05:20:53.001Z,19.50
2018-07-22T05:23:21.847Z,19.50
2018-07-22T05:25:50.698Z,19.50
2018-07-22T05:28:19.593Z,19.60
2018-07-22T05:30:48.383Z,19.60
2018-07-22T05:33:17.220Z,19.70
2018-07-22T05:35:46.110Z,19.80
2018-07-22T05:38:14.901Z,19.80
2018-07-22T05:40:43.754Z,19.60
2018-07-22T05:43:12.592Z,19.60
2018-07-22T05:45:41.443Z,19.60
2018-07-22T05:48:11.015Z,19.70
2018-07-22T05:50:39.860Z,19.80
2018-07-22T05:53:10.110Z,19.90
2018-07-22T05:55:38.959Z,20.00
2018-07-22T05:58:07.843Z,20.00
2018-07-22T06:00:36.646Z,20.00
2018-07-22T06:03:05.545Z,20.20
2018-07-22T06:05:34.337Z,20.20
2018-07-22T06:08:03.187Z,20.00
2018-07-22T06:10:32.031Z,20.20
2018-07-22T06:13:00.877Z,20.10
2018-07-22T06:15:30.467Z,20.10
2018-07-22T06:17:59.308Z,20.20
2018-07-22T06:20:28.180Z,20.30
2018-07-22T06:22:57.039Z,20.30
2018-07-22T06:25:25.879Z,20.40
2018-07-22T06:27:54.723Z,20.30
2018-07-22T06:30:23.582Z,20.40
2018-07-22T06:32:52.420Z,20.50
2018-07-22T06:35:21.315Z,20.50
2018-07-22T06:37:50.116Z,20.50
2018-07-22T06:40:18.974Z,20.50
2018-07-22T06:42:48.564Z,20.50
2018-07-22T06:45:17.429Z,20.60
2018-07-22T06:47:46.284Z,20.70
2018-07-22T06:50:15.123Z,20.70
2018-07-22T06:52:43.960Z,20.90
2018-07-22T06:55:13.573Z,20.90
2018-07-22T06:57:43.160Z,21.00
2018-07-22T07:00:12.025Z,21.00
2018-07-22T07:02:40.868Z,21.00
2018-07-22T07:05:09.746Z,21.00
2018-07-22T07:07:38.567Z,21.00
2018-07-22T07:10:07.431Z,21.00
2018-07-22T07:12:36.288Z,21.10
2018-07-22T07:15:05.140Z,21.00
2018-07-22T07:17:33.996Z,21.00
2018-07-22T07:20:03.593Z,21.10
2018-07-22T07:22:32.441Z,21.10
2018-07-22T07:25:01.281Z,21.20
2018-07-22T07:27:30.878Z,21.20
2018-07-22T07:29:59.719Z,21.30
2018-07-22T07:32:28.565Z,21.30
2018-07-22T07:34:58.162Z,21.30
2018-07-22T07:37:27.010Z,21.30
2018-07-22T07:39:55.857Z,21.30
2018-07-22T07:42:24.801Z,21.40
2018-07-22T07:44:53.609Z,21.40
2018-07-22T07:47:22.443Z,21.40
2018-07-22T07:49:51.293Z,21.40
2018-07-22T07:52:20.148Z,21.40
2018-07-22T07:54:48.996Z,21.40
2018-07-22T07:57:17.848Z,21.50
2018-07-22T07:59:46.696Z,21.40
2018-07-22T08:02:15.546Z,21.60
2018-07-22T08:04:44.399Z,21.60
2018-07-22T08:07:13.247Z,21.80
2018-07-22T08:09:42.097Z,21.80
2018-07-22T08:12:10.946Z,21.80
2018-07-22T08:14:39.793Z,21.90
2018-07-22T08:17:08.637Z,22.00
2018-07-22T08:19:37.486Z,22.10
2018-07-22T08:22:07.097Z,21.90
2018-07-22T08:24:35.920Z,21.90
2018-07-22T08:27:04.770Z,21.90
2018-07-22T08:29:33.622Z,21.80
2018-07-22T08:32:02.488Z,22.00
2018-07-22T08:34:31.346Z,22.20
2018-07-22T08:39:30.356Z,22.20
2018-07-22T08:41:59.215Z,22.30
2018-07-22T08:44:28.064Z,22.30
2018-07-22T08:46:56.917Z,22.40
2018-07-22T08:49:25.759Z,22.50
2018-07-22T08:51:54.599Z,22.50
2018-07-22T08:56:52.909Z,22.60
2018-07-22T08:59:22.495Z,22.70
2018-07-22T09:01:51.365Z,22.80
2018-07-22T09:04:20.226Z,22.90
2018-07-22T09:06:49.068Z,23.10
2018-07-22T09:09:17.927Z,23.30
2018-07-22T09:11:46.780Z,23.40
2018-07-22T09:14:15.629Z,23.50
2018-07-22T09:16:44.504Z,23.40
2018-07-22T09:19:13.347Z,23.60
2018-07-22T09:21:42.196Z,23.50
2018-07-22T09:24:11.057Z,23.50
2018-07-22T09:26:39.897Z,23.60
2018-07-22T09:29:09.499Z,23.30
2018-07-22T09:31:39.092Z,23.20
2018-07-22T09:34:07.954Z,23.10
2018-07-22T09:36:36.861Z,23.00
2018-07-22T09:39:05.689Z,23.00
2018-07-22T09:41:34.531Z,23.00
2018-07-22T09:44:03.393Z,23.10
2018-07-22T09:46:32.247Z,23.30
2018-07-22T09:49:01.868Z,23.40
2018-07-22T09:51:30.678Z,23.40
2018-07-22T09:53:59.521Z,23.40
2018-07-22T09:56:28.363Z,23.60
2018-07-22T09:58:57.220Z,23.70
2018-07-22T10:01:26.070Z,23.80
2018-07-22T10:03:54.925Z,23.90
2018-07-22T10:06:23.776Z,23.80
2018-07-22T10:08:53.373Z,23.70
2018-07-22T10:11:22.239Z,23.90
2018-07-22T10:13:51.092Z,24.10
2018-07-22T10:16:19.933Z,24.10
2018-07-22T10:18:48.795Z,24.40
2018-07-22T10:21:17.631Z,24.30
2018-07-22T10:23:47.223Z,24.30
2018-07-22T10:26:16.086Z,24.40
2018-07-22T10:28:44.986Z,24.50
2018-07-22T10:31:13.805Z,24.50
2018-07-22T10:33:42.641Z,24.80
2018-07-22T10:36:11.489Z,25.10
2018-07-22T10:38:41.076Z,25.00
2018-07-22T10:41:10.060Z,25.10
2018-07-22T10:43:38.790Z,25.10
2018-07-22T10:46:07.633Z,25.00
2018-07-22T10:48:36.495Z,24.90
2018-07-22T10:51:05.400Z,24.90
2018-07-22T10:53:34.203Z,24.90
2018-07-22T10:56:03.056Z,25.10
2018-07-22T10:58:31.905Z,25.40
2018-07-22T11:01:01.508Z,25.50
2018-07-22T11:03:30.350Z,25.40
2018-07-22T11:05:59.201Z,25.70
2018-07-22T11:08:28.051Z,25.70
2018-07-22T11:10:56.898Z,25.70
2018-07-22T11:13:25.754Z,25.80
2018-07-22T11:15:54.610Z,25.70
2018-07-22T11:18:23.467Z,25.80
2018-07-22T11:20:52.341Z,26.00
2018-07-22T11:23:21.170Z,26.00
2018-07-22T11:25:50.025Z,26.30
2018-07-22T11:28:18.878Z,26.20
2018-07-22T11:30:47.727Z,26.40
2018-07-22T11:33:16.572Z,26.10
2018-07-22T11:35:46.165Z,26.00
2018-07-22T11:38:15.008Z,26.00
2018-07-22T11:40:43.852Z,25.90
2018-07-22T11:43:13.485Z,26.10
2018-07-22T11:45:42.338Z,26.20
2018-07-22T11:48:11.186Z,26.20
2018-07-22T11:50:40.045Z,26.40
2018-07-22T11:53:08.891Z,26.40
2018-07-22T11:55:37.736Z,26.30
2018-07-22T11:58:06.590Z,26.50
2018-07-22T12:00:35.439Z,26.50
2018-07-22T12:03:04.292Z,26.60
2018-07-22T12:05:33.132Z,26.40
2018-07-22T12:08:01.977Z,26.40
2018-07-22T12:10:31.572Z,26.90
2018-07-22T12:13:01.172Z,27.20
2018-07-22T12:15:30.030Z,27.20
2018-07-22T12:17:58.904Z,27.10
2018-07-22T12:20:27.758Z,27.00
2018-07-22T12:22:56.622Z,27.00
2018-07-22T12:25:25.474Z,27.00
2018-07-22T12:27:54.467Z,27.20
2018-07-22T12:30:23.316Z,27.30
2018-07-22T12:32:52.910Z,27.00
2018-07-22T12:35:21.786Z,27.10
2018-07-22T12:37:50.594Z,27.10
2018-07-22T12:40:19.442Z,27.40
2018-07-22T12:42:48.283Z,27.40
2018-07-22T12:45:17.141Z,27.60
2018-07-22T12:47:45.983Z,27.60
2018-07-22T12:50:14.880Z,27.60
2018-07-22T12:52:43.681Z,27.70
2018-07-22T12:55:12.531Z,28.00
2018-07-22T12:57:41.393Z,28.10
2018-07-22T13:00:10.239Z,28.40
2018-07-22T13:02:39.101Z,28.30
2018-07-22T13:05:08.716Z,28.20
2018-07-22T13:07:38.307Z,28.10
2018-07-22T13:10:07.164Z,28.30
2018-07-22T13:12:36.021Z,28.50
2018-07-22T13:15:04.873Z,28.50
2018-07-22T13:17:33.740Z,28.50
2018-07-22T13:20:02.604Z,28.60
2018-07-22T13:22:31.444Z,28.70
2018-07-22T13:25:00.305Z,28.80
2018-07-22T13:27:29.170Z,28.90
2018-07-22T13:29:58.001Z,28.30
2018-07-22T13:32:26.847Z,28.50
2018-07-22T13:34:55.689Z,28.60
2018-07-22T13:37:24.534Z,28.30
2018-07-22T13:39:53.386Z,28.50
2018-07-22T13:42:22.984Z,28.80
2018-07-22T13:44:51.835Z,29.30
2018-07-22T13:47:20.689Z,29.40
2018-07-22T13:49:49.541Z,29.00
2018-07-22T13:52:18.381Z,28.90
2018-07-22T13:54:47.225Z,28.50
2018-07-22T13:57:16.063Z,28.50
2018-07-22T13:59:45.670Z,28.70
2018-07-22T14:02:15.260Z,28.70
2018-07-22T14:04:44.852Z,29.00
2018-07-22T14:07:13.742Z,29.20
2018-07-22T14:09:42.550Z,29.00
2018-07-22T14:12:11.400Z,29.10
2018-07-22T14:14:40.288Z,29.40
2018-07-22T14:17:09.888Z,29.70
2018-07-22T14:19:38.744Z,30.10
2018-07-22T14:22:07.598Z,30.10
2018-07-22T14:24:37.183Z,30.20
2018-07-22T14:27:06.024Z,30.00
2018-07-22T14:29:34.882Z,30.30
2018-07-22T14:32:03.734Z,29.90
2018-07-22T14:34:32.566Z,29.70
2018-07-22T14:37:02.160Z,29.50
2018-07-22T14:39:31.005Z,29.50
2018-07-22T14:41:59.848Z,29.30
2018-07-22T14:44:29.423Z,29.00
2018-07-22T14:46:58.291Z,28.60
2018-07-22T14:49:27.118Z,28.50
2018-07-22T14:51:55.952Z,27.60
2018-07-22T14:54:25.536Z,26.80
2018-07-22T14:56:54.367Z,26.40
2018-07-22T14:59:23.211Z,26.00
2018-07-22T15:01:52.056Z,25.50
2018-07-22T15:04:20.907Z,25.10
2018-07-22T15:06:50.497Z,24.50
2018-07-22T15:09:19.362Z,23.90
2018-07-22T15:11:48.202Z,22.70
2018-07-22T15:14:17.772Z,21.90
2018-07-22T15:16:46.617Z,21.60
2018-07-22T15:19:15.480Z,21.10
2018-07-22T15:21:44.320Z,21.10
2018-07-22T15:24:13.159Z,21.00
2018-07-22T15:26:42.751Z,21.10
2018-07-22T15:29:11.646Z,21.20
2018-07-22T15:31:40.453Z,21.30
2018-07-22T15:34:09.309Z,21.30
2018-07-22T15:36:38.159Z,21.30
2018-07-22T15:39:06.999Z,21.40
2018-07-22T15:41:35.845Z,21.30
2018-07-22T15:44:04.685Z,21.50
2018-07-22T15:46:33.695Z,21.50
2018-07-22T15:49:02.404Z,21.50
2018-07-22T15:51:31.258Z,21.60
2018-07-22T15:54:00.843Z,21.60
2018-07-22T15:56:29.688Z,21.70
2018-07-22T15:58:58.533Z,21.70
2018-07-22T16:01:27.409Z,21.70
2018-07-22T16:03:56.251Z,21.80
2018-07-22T16:06:25.115Z,21.90
2018-07-22T16:08:53.973Z,21.90
2018-07-22T16:11:22.846Z,22.00
2018-07-22T16:13:51.680Z,22.10
2018-07-22T16:16:20.561Z,22.20
2018-07-22T16:18:49.410Z,22.30
2018-07-22T16:21:18.277Z,22.30
2018-07-22T16:23:47.136Z,22.50
2018-07-22T16:26:15.976Z,22.70
2018-07-22T16:28:44.838Z,23.00
2018-07-22T16:31:13.685Z,23.10
2018-07-22T16:33:42.595Z,23.10
2018-07-22T16:36:11.392Z,23.00
2018-07-22T16:38:40.244Z,23.00
2018-07-22T16:41:09.840Z,22.90
2018-07-22T16:43:38.700Z,22.90
2018-07-22T16:46:07.548Z,22.80
2018-07-22T16:48:36.396Z,22.80
2018-07-22T16:51:05.240Z,22.70
2018-07-22T16:53:34.123Z,22.60
2018-07-22T16:56:02.946Z,22.60
2018-07-22T16:58:31.796Z,22.60
2018-07-22T17:01:01.374Z,22.60
2018-07-22T17:03:30.218Z,22.60
2018-07-22T17:05:59.056Z,22.50
2018-07-22T17:08:27.912Z,22.60
2018-07-22T17:10:56.756Z,22.70
2018-07-22T17:13:25.606Z,22.60
2018-07-22T17:15:54.456Z,22.60
2018-07-22T17:18:24.065Z,22.50
2018-07-22T17:20:53.675Z,22.50
2018-07-22T17:23:22.515Z,22.60
2018-07-22T17:25:51.367Z,22.60
2018-07-22T17:28:20.951Z,22.60
2018-07-22T17:30:49.797Z,22.60
2018-07-22T17:33:18.652Z,22.50
2018-07-22T17:35:48.241Z,22.50
2018-07-22T17:38:17.085Z,22.40
2018-07-22T17:40:45.939Z,22.40
2018-07-22T17:43:14.787Z,22.40
2018-07-22T17:45:43.637Z,22.40
2018-07-22T17:48:12.496Z,22.40
2018-07-22T17:50:41.364Z,22.40
2018-07-22T17:53:10.221Z,22.40
2018-07-22T17:55:39.059Z,22.50
2018-07-22T17:58:07.934Z,22.50
2018-07-22T18:00:36.783Z,22.50
2018-07-22T18:03:05.647Z,22.60
2018-07-22T18:05:35.266Z,22.50
2018-07-22T18:08:04.851Z,22.50
2018-07-22T18:10:33.693Z,22.50
2018-07-22T18:13:02.552Z,22.40
2018-07-22T18:15:31.396Z,22.40
2018-07-22T18:18:00.250Z,22.30
2018-07-22T18:20:29.859Z,22.30
2018-07-22T18:22:58.752Z,22.30
2018-07-22T18:25:28.292Z,22.30
2018-07-22T18:27:57.134Z,22.30
2018-07-22T18:30:25.997Z,22.20
2018-07-22T18:32:55.589Z,22.20
2018-07-22T18:35:24.452Z,22.20
2018-07-22T18:37:53.321Z,22.30
2018-07-22T18:40:22.167Z,22.30
2018-07-22T18:42:51.026Z,22.30
2018-07-22T18:45:19.881Z,22.30
2018-07-22T18:47:48.987Z,22.20
2018-07-22T18:50:17.802Z,22.30
2018-07-22T18:52:46.663Z,22.20
2018-07-22T18:55:15.778Z,22.20
2018-07-22T18:57:44.793Z,22.20
2018-07-22T19:00:13.852Z,22.20
2018-07-22T19:02:42.949Z,22.20
2018-07-22T19:05:12.048Z,22.20
2018-07-22T19:07:41.151Z,22.10
2018-07-22T19:10:10.244Z,22.00
2018-07-22T19:12:39.332Z,22.00
2018-07-22T19:15:08.153Z,21.90
2018-07-22T19:17:37.047Z,22.00
2018-07-22T19:20:05.895Z,22.00
2018-07-22T19:22:34.734Z,22.00
2018-07-22T19:25:04.347Z,22.00
2018-07-22T19:27:33.189Z,22.00
2018-07-22T19:30:02.047Z,22.00
2018-07-22T19:32:30.931Z,22.10
2018-07-22T19:34:59.763Z,22.00
2018-07-22T19:37:28.610Z,22.00
2018-07-22T19:39:57.471Z,22.10
2018-07-22T19:42:26.309Z,22.10
2018-07-22T19:44:55.157Z,22.10
2018-07-22T19:47:24.755Z,22.00
2018-07-22T19:49:53.615Z,22.00
2018-07-22T19:52:22.468Z,22.00
2018-07-22T19:54:51.328Z,22.00
2018-07-22T19:57:20.917Z,22.00
2018-07-22T19:59:49.750Z,22.10
2018-07-22T20:02:18.646Z,22.10
2018-07-22T20:04:47.456Z,22.10
2018-07-22T20:07:16.295Z,22.00
2018-07-22T20:09:45.946Z,22.00
2018-07-22T20:12:14.781Z,22.00
2018-07-22T20:14:43.634Z,22.00
2018-07-22T20:17:13.236Z,21.90
2018-07-22T20:19:42.830Z,22.00
2018-07-22T20:22:11.693Z,21.90
2018-07-22T20:24:40.544Z,21.90
2018-07-22T20:27:09.376Z,21.80
2018-07-22T20:29:38.222Z,21.80
2018-07-22T20:32:07.086Z,21.90
2018-07-22T20:34:35.972Z,21.90
2018-07-22T20:37:04.840Z,22.00
2018-07-22T20:39:33.681Z,22.00
2018-07-22T20:42:02.554Z,22.00
2018-07-22T20:44:31.398Z,22.00
2018-07-22T20:47:00.285Z,21.90
2018-07-22T20:49:29.107Z,21.90
2018-07-22T20:51:57.950Z,21.90
2018-07-22T20:54:26.809Z,21.80
2018-07-22T20:56:55.701Z,21.80
2018-07-22T20:59:24.565Z,21.80
2018-07-22T21:01:53.411Z,21.80
2018-07-22T21:04:22.999Z,21.80
2018-07-22T21:06:51.871Z,21.80
2018-07-22T21:09:20.708Z,21.80
2018-07-22T21:11:49.560Z,21.70
2018-07-22T21:14:18.429Z,21.70
2018-07-22T21:16:47.267Z,21.70
2018-07-22T21:19:16.868Z,21.60
2018-07-22T21:21:46.461Z,21.60
2018-07-22T21:24:16.088Z,21.60
2018-07-22T21:26:44.970Z,21.70
2018-07-22T21:29:13.774Z,21.70
2018-07-22T21:31:42.628Z,21.70
2018-07-22T21:34:11.542Z,21.70
2018-07-22T21:36:41.130Z,21.70
2018-07-22T21:39:09.985Z,21.80
2018-07-22T21:41:38.841Z,21.80
2018-07-22T21:44:07.685Z,21.80
2018-07-22T21:46:36.529Z,21.80
2018-07-22T21:49:05.395Z,21.80
2018-07-22T21:51:34.247Z,21.70
2018-07-22T21:54:03.098Z,21.70
2018-07-22T21:56:31.951Z,21.60
2018-07-22T21:59:01.533Z,21.60
2018-07-22T22:01:30.375Z,21.60
2018-07-22T22:03:59.228Z,21.50
2018-07-22T22:06:28.811Z,21.40
2018-07-22T22:08:57.657Z,21.40
2018-07-22T22:11:26.498Z,21.40
2018-07-22T22:13:55.345Z,21.40
2018-07-22T22:16:24.186Z,21.40
2018-07-22T22:18:53.035Z,21.40
2018-07-22T22:21:21.886Z,21.40
2018-07-22T22:23:50.731Z,21.40
2018-07-22T22:26:19.588Z,21.40
2018-07-22T22:28:48.449Z,21.50
2018-07-22T22:31:18.028Z,21.40
2018-07-22T22:33:46.896Z,21.40
2018-07-22T22:36:15.747Z,21.40
2018-07-22T22:38:45.329Z,21.30
2018-07-22T22:41:14.182Z,21.30
2018-07-22T22:43:43.025Z,21.30
2018-07-22T22:46:12.632Z,21.30
2018-07-22T22:48:41.480Z,21.30
2018-07-22T22:51:10.318Z,21.40
2018-07-22T22:53:39.176Z,21.30
2018-07-22T22:56:08.017Z,21.30
2018-07-22T22:58:51.412Z,21.30
2018-07-22T23:01:20.266Z,21.30
2018-07-22T23:03:49.853Z,21.40
2018-07-22T23:06:18.701Z,21.30
2018-07-22T23:08:47.559Z,21.30
2018-07-22T23:11:16.405Z,21.20
2018-07-22T23:13:46.780Z,21.20
2018-07-22T23:16:15.620Z,21.10
2018-07-22T23:18:44.472Z,21.10
2018-07-22T23:21:14.068Z,21.10
2018-07-22T23:23:42.921Z,21.10
2018-07-22T23:26:11.754Z,21.00
2018-07-22T23:28:40.603Z,21.00
2018-07-22T23:31:09.441Z,21.00
2018-07-22T23:33:38.301Z,21.00
2018-07-22T23:36:07.152Z,21.00
2018-07-22T23:38:36.018Z,20.90
2018-07-22T23:41:04.881Z,20.90
2018-07-22T23:43:33.801Z,20.90
2018-07-22T23:46:03.372Z,20.90
2018-07-22T23:48:32.217Z,21.00
2018-07-22T23:51:01.058Z,20.90
2018-07-22T23:53:29.896Z,20.90
2018-07-22T23:55:58.740Z,20.90
2018-07-22T23:58:27.598Z,20.90
